sensor_id;sensor_type;location;lat;lon;timestamp;pressure;altitude;pressure_sealevel;temperature;humidity
16690;BME280;8458;52.220;9.884;2023-02-23T00:00:00;100372.63;;;8.61;88.68
16690;BME280;8458;52.220;9.884;2023-02-23T00:02:39;100372.63;;;8.61;89.04
16690;BME280;8458;52.220;9.884;2023-02-23T00:05:07;100368.97;;;8.56;90.17
16690;BME280;8458;52.220;9.884;2023-02-23T00:07:34;100371.66;;;8.51;91.45
16690;BME280;8458;52.220;9.884;2023-02-23T00:10:00;100368.25;;;8.43;94.46
16690;BME280;8458;52.220;9.884;2023-02-23T00:12:27;100365.28;;;8.50;96.45
16690;BME280;8458;52.220;9.884;2023-02-23T00:14:53;100368.13;;;8.55;97.98
16690;BME280;8458;52.220;9.884;2023-02-23T00:17:20;100370.22;;;8.70;98.17
16690;BME280;8458;52.220;9.884;2023-02-23T00:19:48;100366.16;;;8.78;98.30
16690;BME280;8458;52.220;9.884;2023-02-23T00:22:16;100364.22;;;8.78;98.32
16690;BME280;8458;52.220;9.884;2023-02-23T00:24:42;100361.03;;;8.92;98.38
16690;BME280;8458;52.220;9.884;2023-02-23T00:27:11;100367.41;;;8.92;98.93
16690;BME280;8458;52.220;9.884;2023-02-23T00:29:42;100367.59;;;8.86;99.54
16690;BME280;8458;52.220;9.884;2023-02-23T00:32:09;100367.41;;;8.92;100.00
16690;BME280;8458;52.220;9.884;2023-02-23T00:34:35;100367.81;;;9.06;99.93
16690;BME280;8458;52.220;9.884;2023-02-23T00:37:02;100365.84;;;9.02;100.00
16690;BME280;8458;52.220;9.884;2023-02-23T00:39:30;100361.44;;;9.06;100.00
16690;BME280;8458;52.220;9.884;2023-02-23T00:41:56;100364.00;;;9.12;100.00
16690;BME280;8458;52.220;9.884;2023-02-23T00:44:27;100367.06;;;9.16;100.00
16690;BME280;8458;52.220;9.884;2023-02-23T00:46:53;100366.25;;;9.15;100.00
16690;BME280;8458;52.220;9.884;2023-02-23T00:49:21;100363.00;;;9.24;100.00
16690;BME280;8458;52.220;9.884;2023-02-23T00:51:48;100370.66;;;9.17;100.00
16690;BME280;8458;52.220;9.884;2023-02-23T00:54:16;100368.22;;;9.20;99.95
16690;BME280;8458;52.220;9.884;2023-02-23T00:56:44;100367.06;;;9.16;100.00
16690;BME280;8458;52.220;9.884;2023-02-23T00:59:11;100378.44;;;9.20;100.00
16690;BME280;8458;52.220;9.884;2023-02-23T01:01:39;100378.13;;;9.16;100.00
16690;BME280;8458;52.220;9.884;2023-02-23T01:04:07;100375.06;;;9.12;100.00
16690;BME280;8458;52.220;9.884;2023-02-23T01:06:34;100381.47;;;9.18;100.00
16690;BME280;8458;52.220;9.884;2023-02-23T01:09:06;100380.66;;;9.18;100.00
16690;BME280;8458;52.220;9.884;2023-02-23T01:11:34;100382.31;;;9.19;100.00
16690;BME280;8458;52.220;9.884;2023-02-23T01:14:02;100381.47;;;9.18;100.00
16690;BME280;8458;52.220;9.884;2023-02-23T01:16:30;100383.66;;;9.16;100.00
16690;BME280;8458;52.220;9.884;2023-02-23T01:18:59;100385.13;;;9.24;100.00
16690;BME280;8458;52.220;9.884;2023-02-23T01:21:27;100394.63;;;9.33;99.99
16690;BME280;8458;52.220;9.884;2023-02-23T01:23:54;100380.81;;;9.38;99.16
16690;BME280;8458;52.220;9.884;2023-02-23T01:26:22;100388.84;;;9.40;98.70
16690;BME280;8458;52.220;9.884;2023-02-23T01:28:50;100385.00;;;9.41;98.08
16690;BME280;8458;52.220;9.884;2023-02-23T01:31:19;100384.47;;;9.44;97.78
16690;BME280;8458;52.220;9.884;2023-02-23T01:33:45;100383.06;;;9.46;97.58
16690;BME280;8458;52.220;9.884;2023-02-23T01:36:12;100380.28;;;9.41;97.54
16690;BME280;8458;52.220;9.884;2023-02-23T01:38:39;100388.63;;;9.46;97.51
16690;BME280;8458;52.220;9.884;2023-02-23T01:41:06;100392.53;;;9.50;97.23
16690;BME280;8458;52.220;9.884;2023-02-23T01:43:33;100396.97;;;9.51;97.12
16690;BME280;8458;52.220;9.884;2023-02-23T01:46:01;100383.16;;;9.57;96.81
16690;BME280;8458;52.220;9.884;2023-02-23T01:48:31;100389.75;;;9.50;97.04
16690;BME280;8458;52.220;9.884;2023-02-23T01:51:02;100390.59;;;9.51;97.25
16690;BME280;8458;52.220;9.884;2023-02-23T01:53:32;100382.50;;;9.44;97.45
16690;BME280;8458;52.220;9.884;2023-02-23T01:56:03;100391.91;;;9.43;97.91
16690;BME280;8458;52.220;9.884;2023-02-23T01:58:33;100389.09;;;9.38;97.97
16690;BME280;8458;52.220;9.884;2023-02-23T02:01:00;100388.22;;;9.32;98.41
16690;BME280;8458;52.220;9.884;2023-02-23T02:03:32;100387.13;;;9.33;98.40
16690;BME280;8458;52.220;9.884;2023-02-23T02:06:01;100384.09;;;9.35;98.42
16690;BME280;8458;52.220;9.884;2023-02-23T02:08:29;100384.38;;;9.33;98.85
16690;BME280;8458;52.220;9.884;2023-02-23T02:10:56;100382.16;;;9.36;98.80
16690;BME280;8458;52.220;9.884;2023-02-23T02:13:26;100386.88;;;9.35;98.76
16690;BME280;8458;52.220;9.884;2023-02-23T02:16:07;100386.63;;;9.42;98.61
16690;BME280;8458;52.220;9.884;2023-02-23T02:18:49;100392.78;;;9.49;98.13
16690;BME280;8458;52.220;9.884;2023-02-23T02:22:01;100394.78;;;9.54;97.46
16690;BME280;8458;52.220;9.884;2023-02-23T02:28:04;100401.97;;;9.55;97.39
16690;BME280;8458;52.220;9.884;2023-02-23T02:30:47;100396.97;;;9.51;97.32
16690;BME280;8458;52.220;9.884;2023-02-23T02:36:56;100394.22;;;9.51;97.27
16690;BME280;8458;52.220;9.884;2023-02-23T02:39:34;100398.09;;;9.56;96.64
16690;BME280;8458;52.220;9.884;2023-02-23T02:42:12;100399.78;;;9.57;96.73
16690;BME280;8458;52.220;9.884;2023-02-23T02:44:49;100396.19;;;9.56;96.97
16690;BME280;8458;52.220;9.884;2023-02-23T02:47:21;100396.44;;;9.55;96.59
16690;BME280;8458;52.220;9.884;2023-02-23T02:49:56;100399.13;;;9.44;96.73
16690;BME280;8458;52.220;9.884;2023-02-23T02:52:28;100397.38;;;9.33;97.07
16690;BME280;8458;52.220;9.884;2023-02-23T02:55:00;100386.56;;;8.99;98.68
16690;BME280;8458;52.220;9.884;2023-02-23T02:57:31;100394.22;;;8.92;99.87
16690;BME280;8458;52.220;9.884;2023-02-23T02:59:59;100392.66;;;9.01;99.58
16690;BME280;8458;52.220;9.884;2023-02-23T03:02:43;100383.91;;;9.09;99.16
16690;BME280;8458;52.220;9.884;2023-02-23T03:05:30;100381.66;;;9.06;98.99
16690;BME280;8458;52.220;9.884;2023-02-23T03:08:21;100375.00;;;9.07;98.63
16690;BME280;8458;52.220;9.884;2023-02-23T03:11:09;100375.53;;;9.04;98.69
16690;BME280;8458;52.220;9.884;2023-02-23T03:14:04;100379.41;;;9.03;98.79
16690;BME280;8458;52.220;9.884;2023-02-23T03:17:01;100381.38;;;8.81;99.54
16690;BME280;8458;52.220;9.884;2023-02-23T03:19:52;100383.97;;;8.65;100.00
16690;BME280;8458;52.220;9.884;2023-02-23T03:22:44;100377.16;;;8.73;100.00
16690;BME280;8458;52.220;9.884;2023-02-23T03:25:43;100384.69;;;8.77;100.00
16690;BME280;8458;52.220;9.884;2023-02-23T03:28:31;100394.00;;;8.71;99.86
16690;BME280;8458;52.220;9.884;2023-02-23T03:31:25;100398.88;;;8.64;100.00
16690;BME280;8458;52.220;9.884;2023-02-23T03:34:14;100395.03;;;8.65;100.00
16690;BME280;8458;52.220;9.884;2023-02-23T03:37:04;100402.03;;;8.73;100.00
16690;BME280;8458;52.220;9.884;2023-02-23T03:39:55;100401.72;;;8.69;99.82
16690;BME280;8458;52.220;9.884;2023-02-23T03:42:44;100399.00;;;8.74;99.76
16690;BME280;8458;52.220;9.884;2023-02-23T03:45:29;100393.75;;;8.73;99.66
16690;BME280;8458;52.220;9.884;2023-02-23T03:48:15;100400.25;;;8.61;100.00
16690;BME280;8458;52.220;9.884;2023-02-23T03:51:05;100395.56;;;8.62;100.00
16690;BME280;8458;52.220;9.884;2023-02-23T03:54:00;100385.31;;;8.63;100.00
16690;BME280;8458;52.220;9.884;2023-02-23T03:56:50;100391.19;;;8.66;100.00
16690;BME280;8458;52.220;9.884;2023-02-23T03:59:39;100393.78;;;8.78;99.99
16690;BME280;8458;52.220;9.884;2023-02-23T04:02:28;100390.75;;;8.79;99.53
16690;BME280;8458;52.220;9.884;2023-02-23T04:05:16;100394.22;;;8.92;98.99
16690;BME280;8458;52.220;9.884;2023-02-23T04:08:02;100393.69;;;8.95;96.80
16690;BME280;8458;52.220;9.884;2023-02-23T04:10:51;100396.63;;;8.83;96.78
16690;BME280;8458;52.220;9.884;2023-02-23T04:13:39;100397.44;;;8.84;97.13
16690;BME280;8458;52.220;9.884;2023-02-23T04:16:07;100397.44;;;8.84;96.92
16690;BME280;8458;52.220;9.884;2023-02-23T04:18:34;100390.25;;;8.83;95.98
16690;BME280;8458;52.220;9.884;2023-02-23T04:21:03;100394.66;;;8.78;95.96
16690;BME280;8458;52.220;9.884;2023-02-23T04:23:30;100397.66;;;8.77;95.93
16690;BME280;8458;52.220;9.884;2023-02-23T04:25:57;100396.03;;;8.81;95.67
16690;BME280;8458;52.220;9.884;2023-02-23T04:28:25;100391.81;;;8.73;95.92
16690;BME280;8458;52.220;9.884;2023-02-23T04:30:52;100391.28;;;8.76;95.67
16690;BME280;8458;52.220;9.884;2023-02-23T04:33:20;100392.91;;;8.72;96.14
16690;BME280;8458;52.220;9.884;2023-02-23T04:35:51;100388.00;;;8.52;96.79
16690;BME280;8458;52.220;9.884;2023-02-23T04:38:17;100392.03;;;8.45;97.01
16690;BME280;8458;52.220;9.884;2023-02-23T04:40:43;100394.84;;;8.28;97.60
16690;BME280;8458;52.220;9.884;2023-02-23T04:43:11;100391.56;;;8.31;97.83
16690;BME280;8458;52.220;9.884;2023-02-23T04:45:37;100395.81;;;8.38;97.67
16690;BME280;8458;52.220;9.884;2023-02-23T04:48:04;100398.66;;;8.43;97.82
16690;BME280;8458;52.220;9.884;2023-02-23T04:50:33;100396.81;;;8.49;97.67
16690;BME280;8458;52.220;9.884;2023-02-23T04:52:59;100384.88;;;8.49;97.25
16690;BME280;8458;52.220;9.884;2023-02-23T04:55:26;100395.44;;;8.52;97.17
16690;BME280;8458;52.220;9.884;2023-02-23T04:57:56;100397.06;;;8.48;96.89
16690;BME280;8458;52.220;9.884;2023-02-23T05:00:23;100393.25;;;8.54;96.67
16690;BME280;8458;52.220;9.884;2023-02-23T05:02:50;100397.09;;;8.53;96.17
16690;BME280;8458;52.220;9.884;2023-02-23T05:05:16;100397.69;;;8.55;96.25
16690;BME280;8458;52.220;9.884;2023-02-23T05:07:44;100400.44;;;8.55;95.94
16690;BME280;8458;52.220;9.884;2023-02-23T05:10:12;100402.63;;;8.53;95.73
16690;BME280;8458;52.220;9.884;2023-02-23T05:12:38;100405.97;;;8.55;95.62
16690;BME280;8458;52.220;9.884;2023-02-23T05:15:06;100401.59;;;8.59;95.49
16690;BME280;8458;52.220;9.884;2023-02-23T05:17:37;100408.47;;;8.56;95.09
16690;BME280;8458;52.220;9.884;2023-02-23T05:20:05;100404.31;;;8.54;95.28
16690;BME280;8458;52.220;9.884;2023-02-23T05:22:31;100403.16;;;8.50;95.48
16690;BME280;8458;52.220;9.884;2023-02-23T05:24:59;100416.41;;;8.48;95.34
16690;BME280;8458;52.220;9.884;2023-02-23T05:27:26;100416.41;;;8.48;95.24
16690;BME280;8458;52.220;9.884;2023-02-23T05:29:52;100413.91;;;8.46;95.54
16690;BME280;8458;52.220;9.884;2023-02-23T05:32:19;100421.94;;;8.48;96.06
16690;BME280;8458;52.220;9.884;2023-02-23T05:34:46;100414.19;;;8.50;96.41
16690;BME280;8458;52.220;9.884;2023-02-23T05:37:12;100414.19;;;8.50;96.38
16690;BME280;8458;52.220;9.884;2023-02-23T05:39:39;100410.03;;;8.47;96.51
16690;BME280;8458;52.220;9.884;2023-02-23T05:42:06;100409.19;;;8.47;96.41
16690;BME280;8458;52.220;9.884;2023-02-23T05:44:33;100406.00;;;8.38;97.44
16690;BME280;8458;52.220;9.884;2023-02-23T05:46:59;100407.38;;;8.35;98.35
16690;BME280;8458;52.220;9.884;2023-02-23T05:49:26;100403.19;;;8.33;98.82
16690;BME280;8458;52.220;9.884;2023-02-23T05:51:53;100411.22;;;8.34;98.73
16690;BME280;8458;52.220;9.884;2023-02-23T05:54:19;100408.75;;;8.38;98.67
16690;BME280;8458;52.220;9.884;2023-02-23T05:56:46;100414.63;;;8.41;98.40
16690;BME280;8458;52.220;9.884;2023-02-23T05:59:14;100416.91;;;8.45;98.26
16690;BME280;8458;52.220;9.884;2023-02-23T06:01:41;100415.53;;;8.47;98.02
16690;BME280;8458;52.220;9.884;2023-02-23T06:04:08;100423.56;;;8.49;98.04
16690;BME280;8458;52.220;9.884;2023-02-23T06:06:35;100421.41;;;8.51;97.54
16690;BME280;8458;52.220;9.884;2023-02-23T06:09:01;100408.41;;;8.51;97.73
16690;BME280;8458;52.220;9.884;2023-02-23T06:11:28;100420.56;;;8.50;98.26
16690;BME280;8458;52.220;9.884;2023-02-23T06:13:56;100419.75;;;8.33;99.50
16690;BME280;8458;52.220;9.884;2023-02-23T06:16:24;100417.19;;;8.26;100.00
16690;BME280;8458;52.220;9.884;2023-02-23T06:18:51;100409.94;;;8.20;100.00
16690;BME280;8458;52.220;9.884;2023-02-23T06:21:17;100415.38;;;8.15;100.00
16690;BME280;8458;52.220;9.884;2023-02-23T06:23:44;100413.53;;;8.20;100.00
16690;BME280;8458;52.220;9.884;2023-02-23T06:26:11;100408.66;;;8.28;100.00
16690;BME280;8458;52.220;9.884;2023-02-23T06:28:37;100417.81;;;8.33;100.00
16690;BME280;8458;52.220;9.884;2023-02-23T06:31:04;100416.75;;;8.34;100.00
16690;BME280;8458;52.220;9.884;2023-02-23T06:33:32;100410.72;;;8.37;100.00
16690;BME280;8458;52.220;9.884;2023-02-23T06:35:58;100424.56;;;8.42;100.00
16690;BME280;8458;52.220;9.884;2023-02-23T06:38:25;100421.94;;;8.48;100.00
16690;BME280;8458;52.220;9.884;2023-02-23T06:40:52;100430.28;;;8.53;100.00
16690;BME280;8458;52.220;9.884;2023-02-23T06:43:18;100428.06;;;8.55;100.00
16690;BME280;8458;52.220;9.884;2023-02-23T06:45:45;100428.06;;;8.55;100.00
16690;BME280;8458;52.220;9.884;2023-02-23T06:48:12;100427.81;;;8.56;100.00
16690;BME280;8458;52.220;9.884;2023-02-23T06:50:39;100429.50;;;8.57;100.00
16690;BME280;8458;52.220;9.884;2023-02-23T06:53:06;100430.28;;;8.53;99.97
16690;BME280;8458;52.220;9.884;2023-02-23T06:55:32;100443.53;;;8.51;99.46
16690;BME280;8458;52.220;9.884;2023-02-23T06:57:59;100448.19;;;8.50;99.40
16690;BME280;8458;52.220;9.884;2023-02-23T07:00:25;100446.78;;;8.48;99.52
16690;BME280;8458;52.220;9.884;2023-02-23T07:02:52;100443.00;;;8.54;99.35
16690;BME280;8458;52.220;9.884;2023-02-23T07:05:18;100442.50;;;8.57;99.29
16690;BME280;8458;52.220;9.884;2023-02-23T07:07:46;100456.06;;;8.58;99.50
16690;BME280;8458;52.220;9.884;2023-02-23T07:10:12;100460.22;;;8.61;99.52
16690;BME280;8458;52.220;9.884;2023-02-23T07:12:39;100460.22;;;8.61;99.35
16690;BME280;8458;52.220;9.884;2023-02-23T07:15:06;100453.03;;;8.60;99.12
16690;BME280;8458;52.220;9.884;2023-02-23T07:17:34;100458.22;;;8.56;99.56
16690;BME280;8458;52.220;9.884;2023-02-23T07:20:00;100464.59;;;8.57;99.75
16690;BME280;8458;52.220;9.884;2023-02-23T07:22:27;100459.66;;;8.59;100.00
16690;BME280;8458;52.220;9.884;2023-02-23T07:24:56;100462.97;;;8.61;100.00
16690;BME280;8458;52.220;9.884;2023-02-23T07:27:22;100464.66;;;8.62;100.00
16690;BME280;8458;52.220;9.884;2023-02-23T07:29:49;100471.59;;;8.65;100.00
16690;BME280;8458;52.220;9.884;2023-02-23T07:32:15;100473.00;;;8.67;100.00
16690;BME280;8458;52.220;9.884;2023-02-23T07:34:41;100470.25;;;8.67;100.00
16690;BME280;8458;52.220;9.884;2023-02-23T07:37:08;100468.34;;;8.68;100.00
16690;BME280;8458;52.220;9.884;2023-02-23T07:39:34;100468.38;;;8.73;100.00
16690;BME280;8458;52.220;9.884;2023-02-23T07:42:02;100461.50;;;8.75;100.00
16690;BME280;8458;52.220;9.884;2023-02-23T07:44:29;100467.88;;;8.76;100.00
16690;BME280;8458;52.220;9.884;2023-02-23T07:46:55;100475.34;;;8.75;100.00
16690;BME280;8458;52.220;9.884;2023-02-23T07:49:22;100481.19;;;8.79;100.00
16690;BME280;8458;52.220;9.884;2023-02-23T07:51:49;100482.59;;;8.82;100.00
16690;BME280;8458;52.220;9.884;2023-02-23T07:54:16;100475.44;;;8.86;100.00
16690;BME280;8458;52.220;9.884;2023-02-23T07:56:42;100478.72;;;8.83;100.00
16690;BME280;8458;52.220;9.884;2023-02-23T07:59:10;100485.97;;;8.89;100.00
16690;BME280;8458;52.220;9.884;2023-02-23T08:01:36;100473.84;;;8.90;100.00
16690;BME280;8458;52.220;9.884;2023-02-23T08:04:03;100488.22;;;8.92;100.00
16690;BME280;8458;52.220;9.884;2023-02-23T08:06:30;100489.59;;;8.89;100.00
16690;BME280;8458;52.220;9.884;2023-02-23T08:08:57;100494.34;;;8.94;100.00
16690;BME280;8458;52.220;9.884;2023-02-23T08:11:24;100493.00;;;8.96;100.00
16690;BME280;8458;52.220;9.884;2023-02-23T08:13:52;100488.34;;;9.02;100.00
16690;BME280;8458;52.220;9.884;2023-02-23T08:16:22;100496.34;;;8.99;100.00
16690;BME280;8458;52.220;9.884;2023-02-23T08:18:48;100506.56;;;8.98;100.00
16690;BME280;8458;52.220;9.884;2023-02-23T08:21:15;100494.28;;;8.89;100.00
16690;BME280;8458;52.220;9.884;2023-02-23T08:23:41;100498.53;;;8.74;100.00
16690;BME280;8458;52.220;9.884;2023-02-23T08:26:07;100503.91;;;8.64;100.00
16690;BME280;8458;52.220;9.884;2023-02-23T08:28:34;100508.38;;;8.65;100.00
16690;BME280;8458;52.220;9.884;2023-02-23T08:31:00;100503.34;;;8.62;100.00
16690;BME280;8458;52.220;9.884;2023-02-23T08:33:28;100502.28;;;8.63;100.00
16690;BME280;8458;52.220;9.884;2023-02-23T08:35:57;100502.19;;;8.58;100.00
16690;BME280;8458;52.220;9.884;2023-02-23T08:38:27;100506.69;;;8.64;100.00
16690;BME280;8458;52.220;9.884;2023-02-23T08:40:53;100507.28;;;8.66;100.00
16690;BME280;8458;52.220;9.884;2023-02-23T08:43:20;100516.47;;;8.72;100.00
16690;BME280;8458;52.220;9.884;2023-02-23T08:45:46;100511.84;;;8.77;100.00
16690;BME280;8458;52.220;9.884;2023-02-23T08:48:13;100516.81;;;8.75;100.00
16690;BME280;8458;52.220;9.884;2023-02-23T08:50:41;100508.81;;;8.57;100.00
16690;BME280;8458;52.220;9.884;2023-02-23T08:53:08;100513.19;;;8.53;100.00
16690;BME280;8458;52.220;9.884;2023-02-23T08:55:36;100518.19;;;8.56;100.00
16690;BME280;8458;52.220;9.884;2023-02-23T08:58:03;100517.75;;;8.64;100.00
16690;BME280;8458;52.220;9.884;2023-02-23T09:00:33;100525.78;;;8.66;100.00
16690;BME280;8458;52.220;9.884;2023-02-23T09:03:00;100524.50;;;8.73;100.00
16690;BME280;8458;52.220;9.884;2023-02-23T09:05:26;100518.44;;;8.76;100.00
16690;BME280;8458;52.220;9.884;2023-02-23T09:07:54;100520.44;;;8.81;100.00
16690;BME280;8458;52.220;9.884;2023-02-23T09:10:20;100523.41;;;8.74;100.00
16690;BME280;8458;52.220;9.884;2023-02-23T09:12:49;100526.50;;;8.78;100.00
16690;BME280;8458;52.220;9.884;2023-02-23T09:15:16;100530.16;;;8.84;100.00
16690;BME280;8458;52.220;9.884;2023-02-23T09:17:42;100533.00;;;8.89;100.00
16690;BME280;8458;52.220;9.884;2023-02-23T09:20:11;100534.66;;;8.90;100.00
16690;BME280;8458;52.220;9.884;2023-02-23T09:22:39;100534.41;;;8.91;100.00
16690;BME280;8458;52.220;9.884;2023-02-23T09:25:14;100539.75;;;8.98;100.00
16690;BME280;8458;52.220;9.884;2023-02-23T09:27:42;100543.69;;;9.02;100.00
16690;BME280;8458;52.220;9.884;2023-02-23T09:30:10;100540.97;;;9.07;100.00
16690;BME280;8458;52.220;9.884;2023-02-23T09:32:36;100547.34;;;9.08;100.00
16690;BME280;8458;52.220;9.884;2023-02-23T09:35:03;100552.94;;;9.13;100.00
16690;BME280;8458;52.220;9.884;2023-02-23T09:37:30;100553.19;;;9.11;100.00
16690;BME280;8458;52.220;9.884;2023-02-23T09:39:56;100549.19;;;9.02;100.00
16690;BME280;8458;52.220;9.884;2023-02-23T09:42:33;100554.34;;;9.15;100.00
16690;BME280;8458;52.220;9.884;2023-02-23T09:45:08;100555.94;;;9.11;100.00
16690;BME280;8458;52.220;9.884;2023-02-23T09:47:46;100551.72;;;9.04;100.00
16690;BME280;8458;52.220;9.884;2023-02-23T09:50:20;100555.03;;;9.06;100.00
16690;BME280;8458;52.220;9.884;2023-02-23T09:52:51;100555.56;;;9.03;100.00
16690;BME280;8458;52.220;9.884;2023-02-23T09:55:20;100550.09;;;8.86;100.00
16690;BME280;8458;52.220;9.884;2023-02-23T09:57:48;100556.91;;;8.78;100.00
16690;BME280;8458;52.220;9.884;2023-02-23T10:00:18;100557.66;;;8.73;100.00
16690;BME280;8458;52.220;9.884;2023-02-23T10:03:08;100551.00;;;8.69;100.00
16690;BME280;8458;52.220;9.884;2023-02-23T10:05:40;100554.41;;;8.76;100.00
16690;BME280;8458;52.220;9.884;2023-02-23T10:08:29;100556.13;;;8.83;100.00
16690;BME280;8458;52.220;9.884;2023-02-23T10:11:06;100560.00;;;8.82;100.00
16690;BME280;8458;52.220;9.884;2023-02-23T10:13:45;100566.69;;;8.86;100.00
16690;BME280;8458;52.220;9.884;2023-02-23T10:16:21;100565.16;;;8.95;100.00
16690;BME280;8458;52.220;9.884;2023-02-23T10:18:53;100559.75;;;9.05;100.00
16690;BME280;8458;52.220;9.884;2023-02-23T10:21:29;100568.63;;;9.07;100.00
16690;BME280;8458;52.220;9.884;2023-02-23T10:24:01;100561.75;;;9.10;100.00
16690;BME280;8458;52.220;9.884;2023-02-23T10:26:34;100571.47;;;9.12;100.00
16690;BME280;8458;52.220;9.884;2023-02-23T10:29:06;100565.28;;;9.05;100.00
16690;BME280;8458;52.220;9.884;2023-02-23T10:31:44;100563.03;;;9.02;100.00
16690;BME280;8458;52.220;9.884;2023-02-23T10:34:14;100575.19;;;9.01;100.00
16690;BME280;8458;52.220;9.884;2023-02-23T10:36:44;100569.06;;;8.99;100.00
16690;BME280;8458;52.220;9.884;2023-02-23T10:39:14;100568.00;;;9.00;100.00
16690;BME280;8458;52.220;9.884;2023-02-23T10:41:40;100568.06;;;9.05;100.00
16690;BME280;8458;52.220;9.884;2023-02-23T10:44:16;100569.66;;;9.01;100.00
16690;BME280;8458;52.220;9.884;2023-02-23T10:46:44;100570.16;;;8.98;100.00
16690;BME280;8458;52.220;9.884;2023-02-23T10:49:17;100567.84;;;8.90;100.00
16690;BME280;8458;52.220;9.884;2023-02-23T10:51:47;100571.19;;;8.92;100.00
16690;BME280;8458;52.220;9.884;2023-02-23T10:54:33;100581.63;;;8.85;100.00
16690;BME280;8458;52.220;9.884;2023-02-23T10:57:00;100570.72;;;8.78;100.00
16690;BME280;8458;52.220;9.884;2023-02-23T10:59:28;100578.25;;;8.83;100.00
16690;BME280;8458;52.220;9.884;2023-02-23T11:01:54;100567.19;;;8.83;100.00
16690;BME280;8458;52.220;9.884;2023-02-23T11:04:23;100576.78;;;8.75;100.00
16690;BME280;8458;52.220;9.884;2023-02-23T11:06:50;100568.72;;;8.73;100.00
16690;BME280;8458;52.220;9.884;2023-02-23T11:09:31;100568.72;;;8.73;100.00
16690;BME280;8458;52.220;9.884;2023-02-23T11:12:00;100568.09;;;8.66;100.00
16690;BME280;8458;52.220;9.884;2023-02-23T11:14:30;100564.47;;;8.66;100.00
16690;BME280;8458;52.220;9.884;2023-02-23T11:16:58;100566.16;;;8.67;100.00
16690;BME280;8458;52.220;9.884;2023-02-23T11:19:29;100563.19;;;8.73;100.00
16690;BME280;8458;52.220;9.884;2023-02-23T11:21:58;100563.13;;;8.68;100.00
16690;BME280;8458;52.220;9.884;2023-02-23T11:24:27;100559.88;;;8.71;100.00
16690;BME280;8458;52.220;9.884;2023-02-23T11:26:56;100556.59;;;8.74;100.00
16690;BME280;8458;52.220;9.884;2023-02-23T11:29:26;100551.06;;;8.74;100.00
16690;BME280;8458;52.220;9.884;2023-02-23T11:32:00;100550.75;;;8.71;100.00
16690;BME280;8458;52.220;9.884;2023-02-23T11:34:31;100548.81;;;8.71;100.00
16690;BME280;8458;52.220;9.884;2023-02-23T11:37:02;100552.66;;;8.70;100.00
16690;BME280;8458;52.220;9.884;2023-02-23T11:39:30;100549.31;;;8.68;100.00
16690;BME280;8458;52.220;9.884;2023-02-23T11:42:12;100549.81;;;8.65;100.00
16690;BME280;8458;52.220;9.884;2023-02-23T11:44:39;100537.19;;;8.69;100.00
16690;BME280;8458;52.220;9.884;2023-02-23T11:47:13;100540.00;;;8.74;100.00
16690;BME280;8458;52.220;9.884;2023-02-23T11:49:43;100540.56;;;8.76;100.00
16690;BME280;8458;52.220;9.884;2023-02-23T11:52:13;100537.22;;;8.74;100.00
16690;BME280;8458;52.220;9.884;2023-02-23T11:54:46;100535.66;;;8.78;100.00
16690;BME280;8458;52.220;9.884;2023-02-23T11:57:19;100530.69;;;8.81;100.00
16690;BME280;8458;52.220;9.884;2023-02-23T11:59:46;100532.94;;;8.84;100.00
16690;BME280;8458;52.220;9.884;2023-02-23T12:02:21;100528.44;;;8.77;100.00
16690;BME280;8458;52.220;9.884;2023-02-23T12:04:50;100527.22;;;8.68;100.00
16690;BME280;8458;52.220;9.884;2023-02-23T12:07:26;100520.50;;;8.64;100.00
16690;BME280;8458;52.220;9.884;2023-02-23T12:10:01;100527.50;;;8.72;100.00
16690;BME280;8458;52.220;9.884;2023-02-23T12:12:31;100530.03;;;8.73;100.00
16690;BME280;8458;52.220;9.884;2023-02-23T12:15:04;100532.16;;;8.66;100.00
16690;BME280;8458;52.220;9.884;2023-02-23T12:17:40;100528.94;;;8.74;100.00
16690;BME280;8458;52.220;9.884;2023-02-23T12:20:15;100518.44;;;8.76;100.00
16690;BME280;8458;52.220;9.884;2023-02-23T12:22:46;100514.81;;;8.71;100.00
16690;BME280;8458;52.220;9.884;2023-02-23T12:25:20;100508.03;;;8.84;100.00
16690;BME280;8458;52.220;9.884;2023-02-23T12:27:54;100509.34;;;8.76;100.00
16690;BME280;8458;52.220;9.884;2023-02-23T12:30:37;100512.75;;;8.83;100.00
16690;BME280;8458;52.220;9.884;2023-02-23T12:33:10;100517.94;;;8.79;100.00
16690;BME280;8458;52.220;9.884;2023-02-23T12:35:43;100514.59;;;8.77;100.00
16690;BME280;8458;52.220;9.884;2023-02-23T12:38:18;100513.72;;;8.94;100.00
16690;BME280;8458;52.220;9.884;2023-02-23T12:40:54;100516.84;;;9.03;100.00
16690;BME280;8458;52.220;9.884;2023-02-23T12:43:29;100512.34;;;8.96;100.00
16690;BME280;8458;52.220;9.884;2023-02-23T12:46:05;100509.84;;;8.95;100.00
16690;BME280;8458;52.220;9.884;2023-02-23T12:48:41;100502.31;;;8.90;100.00
16690;BME280;8458;52.220;9.884;2023-02-23T12:51:17;100505.09;;;8.90;100.00
16690;BME280;8458;52.220;9.884;2023-02-23T12:53:46;100508.19;;;8.94;100.00
16690;BME280;8458;52.220;9.884;2023-02-23T12:56:28;100508.03;;;8.84;100.00
16690;BME280;8458;52.220;9.884;2023-02-23T12:59:06;100510.88;;;8.89;100.00
16690;BME280;8458;52.220;9.884;2023-02-23T13:01:42;100504.63;;;8.76;100.00
16690;BME280;8458;52.220;9.884;2023-02-23T13:04:26;100511.38;;;8.86;100.00
16690;BME280;8458;52.220;9.884;2023-02-23T13:07:05;100513.63;;;8.89;100.00
16690;BME280;8458;52.220;9.884;2023-02-23T13:09:43;100509.78;;;8.90;100.00
16690;BME280;8458;52.220;9.884;2023-02-23T13:12:38;100510.25;;;8.82;100.00
16690;BME280;8458;52.220;9.884;2023-02-23T13:15:16;100512.16;;;8.81;100.00
16690;BME280;8458;52.220;9.884;2023-02-23T13:17:50;100511.38;;;8.86;100.00
16690;BME280;8458;52.220;9.884;2023-02-23T13:20:23;100506.38;;;8.83;100.00
16690;BME280;8458;52.220;9.884;2023-02-23T13:22:58;100511.66;;;8.62;100.00
16690;BME280;8458;52.220;9.884;2023-02-23T13:25:33;100506.56;;;8.76;100.00
16690;BME280;8458;52.220;9.884;2023-02-23T13:28:03;100509.97;;;8.61;100.00
16690;BME280;8458;52.220;9.884;2023-02-23T13:30:29;100506.38;;;8.60;100.00
16690;BME280;8458;52.220;9.884;2023-02-23T13:32:58;100506.13;;;8.62;100.00